Time;durP1;ratioP1;P1;durP2;ratioP2;P2;SDS_P1;SDS_P2;PMS_P1;PMS_P2;Temp;Humidity;BMP_temperature;BMP_pressure;BME280_temperature;BME280_humidity;BME280_pressure;Samples;Min_cycle;Max_cycle;Signal;HPM_P1;HPM_P2
2022/02/23 00:01:05;;;;;;;8.03;3.92;;;;;;;1.15;76.65;99629.55;1663588;86;21078;-69
2022/02/23 00:03:32;;;;;;;9.93;3.77;;;;;;;1.11;77.43;99620.50;1663800;84;21110;-69
2022/02/23 00:05:59;;;;;;;8.98;4.53;;;;;;;1.09;77.89;99624.83;1664071;84;21118;-68
2022/02/23 00:08:25;;;;;;;10.10;4.53;;;;;;;1.07;77.81;99620.09;1663544;84;21709;-68
2022/02/23 00:10:52;;;;;;;8.60;3.77;;;;;;;1.09;78.10;99619.64;1663724;86;21026;-68
2022/02/23 00:13:19;;;;;;;8.43;3.60;;;;;;;1.11;78.33;99616.61;1663695;84;21565;-69
2022/02/23 00:15:47;;;;;;;8.83;4.17;;;;;;;1.14;78.86;99614.84;1670679;84;21142;-68
2022/02/23 00:18:17;;;;;;;6.92;4.03;;;;;;;1.18;78.08;99624.77;1670807;84;21072;-68
2022/02/23 00:20:43;;;;;;;6.70;3.50;;;;;;;1.21;77.38;99626.03;1670800;84;21136;-69
2022/02/23 00:23:10;;;;;;;7.55;3.15;;;;;;;1.26;77.56;99616.48;1670653;85;21070;-68
2022/02/23 00:25:36;;;;;;;7.58;3.77;;;;;;;1.31;77.88;99610.84;1641669;85;21142;-69
2022/02/23 00:28:07;;;;;;;11.38;3.67;;;;;;;1.34;77.41;99615.99;1670814;85;21566;-68
2022/02/23 00:30:34;;;;;;;8.48;3.92;;;;;;;1.37;77.62;99614.66;1663926;86;21242;-69
2022/02/23 00:33:01;;;;;;;6.20;3.17;;;;;;;1.39;76.67;99616.81;1664214;86;21789;-68
2022/02/23 00:35:27;;;;;;;8.00;3.70;;;;;;;1.41;76.51;99616.37;1663619;84;21570;-69
2022/02/23 00:37:57;;;;;;;9.13;3.33;;;;;;;1.41;77.08;99611.17;1663777;86;21139;-68
2022/02/23 00:40:24;;;;;;;7.95;3.72;;;;;;;1.43;76.39;99615.92;1663653;84;21993;-69
2022/02/23 00:42:55;;;;;;;6.28;3.37;;;;;;;1.45;77.21;99624.56;1664187;86;21019;-68
2022/02/23 00:45:20;;;;;;;9.00;3.95;;;;;;;1.48;76.81;99621.52;1663220;86;21369;-69
2022/02/23 00:47:47;;;;;;;7.65;3.40;;;;;;;1.51;77.12;99618.89;1663955;86;21070;-69
2022/02/23 00:50:14;;;;;;;8.73;3.80;;;;;;;1.54;76.48;99614.95;1670897;84;21109;-69
2022/02/23 00:52:42;;;;;;;9.20;3.90;;;;;;;1.57;75.48;99615.80;1670735;84;21529;-68
2022/02/23 00:55:09;;;;;;;5.03;2.67;;;;;;;1.61;75.91;99624.00;1695585;84;21068;-68
2022/02/23 00:57:37;;;;;;;7.67;3.40;;;;;;;1.63;76.40;99627.86;1699086;84;21040;-69
2022/02/23 01:00:05;;;;;;;6.85;3.47;;;;;;;1.60;75.45;99628.75;1716386;82;21091;-69
2022/02/23 01:02:33;;;;;;;11.55;3.85;;;;;;;1.60;77.61;99631.78;1734143;82;21107;-69
2022/02/23 01:05:00;;;;;;;8.50;3.47;;;;;;;1.59;75.94;99639.16;1734222;82;21064;-67
2022/02/23 01:07:26;;;;;;;6.72;3.37;;;;;;;1.58;75.79;99638.72;1734292;82;21059;-68
2022/02/23 01:09:53;;;;;;;9.05;3.35;;;;;;;1.58;76.52;99643.91;1734042;82;21146;-69
2022/02/23 01:12:20;;;;;;;9.20;3.67;;;;;;;1.61;74.87;99643.87;1734064;82;21576;-69
2022/02/23 01:14:47;;;;;;;6.45;3.00;;;;;;;1.65;76.90;99645.58;1734087;82;21591;-68
2022/02/23 01:17:15;;;;;;;8.00;3.55;;;;;;;1.69;75.84;99645.98;1734198;82;21059;-69
2022/02/23 01:19:42;;;;;;;7.78;3.10;;;;;;;1.73;75.75;99647.69;1734165;81;21023;-68
2022/02/23 01:22:13;;;;;;;7.33;3.20;;;;;;;1.78;76.09;99642.45;1734007;81;21555;-69
2022/02/23 01:24:41;;;;;;;8.60;3.17;;;;;;;1.82;74.77;99648.90;1733991;82;21075;-68
2022/02/23 01:27:07;;;;;;;5.03;2.70;;;;;;;1.92;74.12;99639.72;1734221;82;21075;-68
2022/02/23 01:29:34;;;;;;;7.92;3.05;;;;;;;1.92;74.12;99639.72;1733931;82;21500;-69
2022/02/23 01:32:00;;;;;;;8.10;3.37;;;;;;;1.98;73.65;99647.43;1734058;81;21627;-68
2022/02/23 01:34:27;;;;;;;8.25;3.30;;;;;;;2.04;75.67;99656.03;1734448;82;21059;-69
2022/02/23 01:36:54;;;;;;;7.20;3.30;;;;;;;2.07;74.16;99663.81;1734066;82;21493;-69
2022/02/23 01:39:20;;;;;;;7.05;3.27;;;;;;;2.14;73.41;99669.81;1733860;82;21119;-70
2022/02/23 01:41:47;;;;;;;9.23;3.72;;;;;;;2.18;74.55;99666.28;1734045;82;21062;-69
2022/02/23 01:44:13;;;;;;;7.40;3.85;;;;;;;2.24;73.05;99674.47;1733937;82;21115;-68
2022/02/23 01:46:39;;;;;;;6.75;3.50;;;;;;;2.26;74.82;99669.67;1734391;82;21166;-70
2022/02/23 01:49:06;;;;;;;10.03;3.87;;;;;;;2.28;73.92;99674.42;1734092;82;20991;-69
2022/02/23 01:51:33;;;;;;;8.90;3.58;;;;;;;2.36;73.80;99678.67;1734164;82;21087;-69
2022/02/23 01:54:00;;;;;;;10.32;4.10;;;;;;;2.38;72.90;99686.02;1720305;82;21143;-68
2022/02/23 01:56:26;;;;;;;7.92;3.47;;;;;;;2.38;72.90;99686.02;1699549;84;21145;-69
2022/02/23 01:58:52;;;;;;;8.58;3.95;;;;;;;2.41;73.09;99687.27;1699173;84;21745;-68
2022/02/23 02:01:21;;;;;;;8.78;3.77;;;;;;;2.47;72.30;99687.21;1698926;84;21044;-69
2022/02/23 02:03:48;;;;;;;8.38;2.92;;;;;;;2.53;73.17;99693.62;1699327;84;21033;-67
2022/02/23 02:06:14;;;;;;;6.50;2.95;;;;;;;2.53;73.17;99693.62;1699531;84;21577;-70
2022/02/23 02:08:41;;;;;;;7.70;3.58;;;;;;;2.56;72.15;99689.70;1699260;84;21165;-67
2022/02/23 02:11:07;;;;;;;6.00;2.90;;;;;;;2.62;72.54;99692.25;1699344;84;21064;-68
2022/02/23 02:13:33;;;;;;;11.78;4.15;;;;;;;2.63;72.37;99696.55;1699463;84;21052;-69
2022/02/23 02:16:00;;;;;;;8.73;3.60;;;;;;;2.66;71.31;99695.20;1693181;84;21029;-69
2022/02/23 02:18:27;;;;;;;9.88;3.90;;;;;;;2.71;71.86;99688.23;1699299;84;21100;-69
2022/02/23 02:20:54;;;;;;;7.80;3.50;;;;;;;2.71;71.86;99688.23;1699739;82;21025;-69
2022/02/23 02:23:21;;;;;;;6.58;3.37;;;;;;;2.75;72.06;99693.39;1699512;82;21148;-69
2022/02/23 02:25:49;;;;;;;9.23;4.00;;;;;;;2.76;72.40;99696.39;1699516;82;21060;-69
2022/02/23 02:28:16;;;;;;;8.18;4.03;;;;;;;2.78;70.27;99705.05;1699435;82;21018;-69
2022/02/23 02:30:43;;;;;;;6.17;3.20;;;;;;;2.79;70.67;99698.98;1699339;84;21103;-70
2022/02/23 02:33:10;;;;;;;6.97;3.42;;;;;;;2.79;70.71;99705.48;1699346;84;21006;-68
2022/02/23 02:35:38;;;;;;;5.08;3.15;;;;;;;2.83;71.42;99716.24;1699264;82;21256;-69
2022/02/23 02:38:06;;;;;;;7.15;3.25;;;;;;;2.83;71.42;99716.24;1699523;82;21068;-68
2022/02/23 02:40:34;;;;;;;8.05;3.50;;;;;;;2.84;70.11;99719.28;1698484;83;21060;-68
2022/02/23 02:43:04;;;;;;;8.75;3.42;;;;;;;2.84;71.16;99719.28;1697197;84;21010;-69
2022/02/23 02:45:32;;;;;;;8.10;3.25;;;;;;;2.84;71.08;99720.58;1697468;84;21044;-69
2022/02/23 02:48:00;;;;;;;9.53;3.08;;;;;;;2.86;70.08;99730.53;1697371;84;21813;-69
2022/02/23 02:50:26;;;;;;;7.08;3.47;;;;;;;2.85;71.75;99731.39;1697251;84;21085;-69
2022/02/23 02:52:54;;;;;;;9.10;4.00;;;;;;;2.85;70.67;99728.80;1697396;84;21060;-68
2022/02/23 02:55:21;;;;;;;9.15;3.62;;;;;;;2.84;70.49;99733.14;1697338;84;21030;-68
2022/02/23 02:57:47;;;;;;;6.87;4.20;;;;;;;2.82;71.18;99742.70;1697299;84;21081;-68
2022/02/23 03:00:15;;;;;;;6.67;3.30;;;;;;;2.81;70.56;99744.89;1697090;84;21529;-69
2022/02/23 03:02:42;;;;;;;12.30;4.85;;;;;;;2.83;71.94;99746.15;1697116;84;21099;-68
2022/02/23 03:05:09;;;;;;;7.40;3.77;;;;;;;2.82;71.69;99757.00;1697059;84;21018;-68
2022/02/23 03:07:35;;;;;;;9.35;4.17;;;;;;;2.79;71.06;99747.09;1697235;84;21056;-69
2022/02/23 03:10:04;;;;;;;6.70;4.00;;;;;;;2.79;72.62;99762.25;1697298;84;21104;-69
2022/02/23 03:12:30;;;;;;;8.55;4.42;;;;;;;2.70;69.16;99758.45;1697096;84;21130;-69
2022/02/23 03:14:57;;;;;;;11.08;4.58;;;;;;;2.70;69.16;99758.45;1697166;84;21040;-68
2022/02/23 03:17:23;;;;;;;8.15;4.35;;;;;;;2.68;70.93;99764.95;1697545;84;21461;-69
2022/02/23 03:19:50;;;;;;;8.00;3.98;;;;;;;2.64;69.23;99758.06;1697633;84;21105;-68
2022/02/23 03:22:17;;;;;;;7.67;3.55;;;;;;;2.62;70.97;99753.34;1697264;84;21076;-69
2022/02/23 03:24:43;;;;;;;6.95;3.45;;;;;;;2.62;69.60;99766.34;1697539;84;21502;-69
2022/02/23 03:27:10;;;;;;;6.10;3.22;;;;;;;2.63;69.63;99771.95;1697255;84;21080;-69
2022/02/23 03:29:36;;;;;;;11.30;3.17;;;;;;;2.62;70.24;99770.66;1697573;84;21060;-69
2022/02/23 03:32:05;;;;;;;10.00;3.35;;;;;;;2.62;69.11;99773.25;1697433;84;21040;-68
2022/02/23 03:34:31;;;;;;;6.85;3.22;;;;;;;2.59;69.88;99768.95;1697756;84;21107;-69
2022/02/23 03:36:57;;;;;;;5.03;2.85;;;;;;;2.57;69.33;99770.70;1697451;84;21094;-68
2022/02/23 03:39:24;;;;;;;6.80;3.08;;;;;;;2.56;69.16;99770.73;1697313;84;21083;-68
2022/02/23 03:41:51;;;;;;;7.87;3.10;;;;;;;2.50;69.24;99769.90;1704073;82;21049;-68
2022/02/23 03:44:17;;;;;;;3.80;2.75;;;;;;;2.44;69.72;99776.89;1706519;84;21113;-68
2022/02/23 03:46:44;;;;;;;8.18;2.87;;;;;;;2.44;69.72;99776.89;1706534;84;21006;-68
2022/02/23 03:49:10;;;;;;;6.40;2.80;;;;;;;2.38;69.68;99771.77;1706618;84;21791;-68
2022/02/23 03:51:37;;;;;;;6.12;2.90;;;;;;;2.36;69.86;99781.31;1706377;84;21124;-69
2022/02/23 03:54:03;;;;;;;8.70;3.02;;;;;;;2.24;69.57;99771.90;1688165;84;21078;-68
2022/02/23 03:56:39;;;;;;;5.95;2.70;;;;;;;2.24;69.57;99771.90;1663092;86;21040;-68
2022/02/23 03:59:08;;;;;;;5.72;2.87;;;;;;;2.19;70.26;99779.73;1663121;86;21047;-69
2022/02/23 04:01:40;;;;;;;6.50;2.58;;;;;;;2.17;70.71;99786.67;1663139;85;21172;-69
2022/02/23 04:04:07;;;;;;;5.90;2.70;;;;;;;2.07;70.24;99785.89;1663314;85;21066;-69
2022/02/23 04:06:33;;;;;;;6.92;2.75;;;;;;;2.07;70.24;99785.89;1663179;86;21126;-69
2022/02/23 04:09:00;;;;;;;8.18;2.70;;;;;;;2.03;70.04;99785.93;1663594;86;21150;-69
2022/02/23 04:11:27;;;;;;;6.53;2.98;;;;;;;1.99;70.15;99789.42;1663018;85;21090;-69
2022/02/23 04:13:54;;;;;;;4.87;2.58;;;;;;;1.85;70.27;99795.56;1663662;84;21778;-69
2022/02/23 04:16:21;;;;;;;6.45;2.80;;;;;;;1.80;71.49;99794.75;1663388;86;21063;-68
2022/02/23 04:18:48;;;;;;;5.55;2.62;;;;;;;1.80;71.49;99794.75;1663434;85;21036;-68
2022/02/23 04:21:15;;;;;;;7.65;2.98;;;;;;;1.72;71.50;99795.22;1663269;85;21606;-69
2022/02/23 04:23:42;;;;;;;4.03;2.55;;;;;;;1.63;71.27;99804.36;1663382;86;21146;-68
2022/02/23 04:26:08;;;;;;;5.67;2.70;;;;;;;1.58;73.08;99812.62;1663075;86;21805;-68
2022/02/23 04:28:35;;;;;;;8.08;2.47;;;;;;;1.49;71.90;99812.22;1663051;85;21373;-68
2022/02/23 04:31:01;;;;;;;7.97;2.70;;;;;;;1.42;72.77;99819.17;1663201;84;21114;-69
2022/02/23 04:33:28;;;;;;;7.05;2.52;;;;;;;1.35;72.69;99821.81;1692602;82;21082;-68
2022/02/23 04:35:55;;;;;;;7.17;3.42;;;;;;;1.25;72.72;99821.00;1706159;84;21696;-69
2022/02/23 04:38:21;;;;;;;7.28;2.75;;;;;;;1.18;73.22;99826.64;1706717;82;21118;-68
2022/02/23 04:40:49;;;;;;;5.15;2.83;;;;;;;1.13;73.34;99836.59;1706149;83;21117;-69
2022/02/23 04:43:16;;;;;;;8.58;2.70;;;;;;;1.08;73.93;99837.05;1706549;84;21597;-68
2022/02/23 04:45:43;;;;;;;9.08;2.87;;;;;;;1.03;74.49;99843.09;1706362;83;21073;-68
2022/02/23 04:48:09;;;;;;;8.45;2.75;;;;;;;1.01;74.18;99837.49;1706306;84;21608;-68
2022/02/23 04:50:36;;;;;;;7.17;2.80;;;;;;;0.97;74.55;99848.77;1685904;84;22191;-68
2022/02/23 04:53:03;;;;;;;6.00;3.08;;;;;;;0.95;74.20;99853.95;1706442;84;21132;-69
2022/02/23 04:55:29;;;;;;;7.12;2.75;;;;;;;0.92;73.91;99848.78;1706399;84;21089;-69
2022/02/23 04:57:55;;;;;;;4.75;2.62;;;;;;;0.89;74.67;99856.54;1706624;84;21569;-68
2022/02/23 05:00:22;;;;;;;6.35;3.12;;;;;;;0.86;74.15;99855.26;1706643;82;21081;-68
2022/02/23 05:02:50;;;;;;;5.83;2.92;;;;;;;0.82;74.95;99865.20;1706307;84;21161;-68
2022/02/23 05:05:16;;;;;;;7.35;3.05;;;;;;;0.79;74.17;99867.80;1706182;84;21070;-68
2022/02/23 05:07:43;;;;;;;9.08;3.60;;;;;;;0.74;73.84;99869.55;1706284;84;21179;-69
2022/02/23 05:10:09;;;;;;;8.25;3.45;;;;;;;0.73;75.30;99872.98;1706105;83;21561;-69
2022/02/23 05:12:36;;;;;;;12.60;4.28;;;;;;;0.69;74.08;99871.25;1706490;84;21125;-68
2022/02/23 05:15:03;;;;;;;11.28;4.42;;;;;;;0.65;74.68;99873.00;1706244;84;21034;-68
2022/02/23 05:17:30;;;;;;;14.23;4.75;;;;;;;0.66;74.66;99876.45;1706314;84;21081;-69
2022/02/23 05:19:56;;;;;;;10.72;3.45;;;;;;;0.62;74.44;99880.36;1706412;84;21593;-68
2022/02/23 05:22:23;;;;;;;9.80;3.22;;;;;;;0.60;75.15;99880.78;1706202;82;21565;-69
2022/02/23 05:24:50;;;;;;;7.92;3.08;;;;;;;0.59;74.40;99879.48;1706127;84;21077;-68
2022/02/23 05:27:16;;;;;;;7.10;2.77;;;;;;;0.56;74.62;99882.94;1706301;83;21092;-69
2022/02/23 05:29:43;;;;;;;6.33;2.62;;;;;;;0.56;74.86;99884.23;1706068;84;21045;-69
2022/02/23 05:32:09;;;;;;;8.28;3.30;;;;;;;0.57;73.98;99888.54;1706452;84;21053;-69
2022/02/23 05:34:35;;;;;;;7.00;2.85;;;;;;;0.58;75.04;99892.88;1706126;84;21060;-69
2022/02/23 05:37:03;;;;;;;6.58;2.52;;;;;;;0.60;74.30;99892.45;1706116;84;21486;-68
2022/02/23 05:39:29;;;;;;;4.85;2.60;;;;;;;0.62;73.99;99902.38;1706257;83;21080;-69
2022/02/23 05:41:56;;;;;;;4.75;2.55;;;;;;;0.61;74.50;99905.82;1702438;83;21052;-68
2022/02/23 05:45:42;;;;;;;8.10;2.20;;;;;;;0.69;75.26;99904.95;1836801;77;22507;-68
2022/02/23 05:48:08;;;;;;;12.40;5.65;;;;;;;0.67;74.55;99902.38;1728356;83;21009;-69
2022/02/23 05:50:35;;;;;;;5.15;2.90;;;;;;;0.73;74.85;99915.31;1741858;82;21079;-68
2022/02/23 05:53:01;;;;;;;11.22;2.65;;;;;;;0.80;73.58;99917.48;1701385;83;21556;-70
2022/02/23 05:55:28;;;;;;;4.03;2.00;;;;;;;0.94;73.05;99917.02;1683099;85;21086;-69
2022/02/23 05:57:54;;;;;;;5.35;2.42;;;;;;;1.56;74.98;99921.62;1667722;86;21037;-70
2022/02/23 06:00:20;;;;;;;6.72;2.22;;;;;;;2.02;70.73;99922.70;1692273;82;21029;-69
2022/02/23 06:02:47;;;;;;;6.40;2.52;;;;;;;2.64;70.60;99920.56;1716851;83;21145;-69
2022/02/23 06:05:14;;;;;;;5.70;2.85;;;;;;;3.42;68.55;99917.64;1716696;83;21057;-70
2022/02/23 06:07:40;;;;;;;5.92;2.83;;;;;;;4.01;65.00;99919.55;1716852;83;21070;-69
2022/02/23 06:10:08;;;;;;;4.65;3.08;;;;;;;4.34;64.45;99919.05;1717136;83;21141;-68
2022/02/23 06:12:36;;;;;;;10.48;3.42;;;;;;;4.69;60.52;99921.53;1716889;83;21034;-70
2022/02/23 06:15:02;;;;;;;6.30;2.90;;;;;;;4.71;58.71;99919.77;1717295;83;21543;-69
2022/02/23 06:17:31;;;;;;;4.87;3.00;;;;;;;4.59;58.78;99929.11;1717036;83;21018;-70
2022/02/23 06:19:59;;;;;;;6.60;3.10;;;;;;;4.39;58.48;99930.70;1717276;83;21050;-70
2022/02/23 06:22:25;;;;;;;5.40;3.27;;;;;;;4.18;59.03;99931.88;1698470;83;21700;-69
2022/02/23 06:24:52;;;;;;;6.03;3.08;;;;;;;3.99;60.11;99929.98;1720595;83;21010;-69
2022/02/23 06:27:18;;;;;;;6.60;3.67;;;;;;;3.88;60.33;99939.23;1720080;83;21133;-69
2022/02/23 06:29:45;;;;;;;7.80;3.10;;;;;;;3.76;62.61;99942.00;1720387;83;21073;-69
2022/02/23 06:32:11;;;;;;;9.05;2.90;;;;;;;3.70;61.96;99948.13;1720068;83;22095;-70
2022/02/23 06:34:38;;;;;;;6.25;2.87;;;;;;;3.67;62.25;99949.92;1693626;83;21589;-69
2022/02/23 06:37:04;;;;;;;6.95;3.50;;;;;;;3.62;62.51;99953.02;1720083;82;21688;-69
2022/02/23 06:39:35;;;;;;;6.15;3.40;;;;;;;3.60;62.26;99956.08;1720347;83;21105;-69
2022/02/23 06:42:02;;;;;;;6.00;3.30;;;;;;;3.55;62.56;99958.30;1719294;83;21053;-69
2022/02/23 06:44:30;;;;;;;7.15;3.52;;;;;;;3.54;61.66;99963.09;1715216;83;21546;-69
2022/02/23 06:47:00;;;;;;;5.92;3.08;;;;;;;3.56;61.76;99969.11;1707257;84;21055;-69
2022/02/23 06:49:31;;;;;;;5.58;3.20;;;;;;;3.62;61.32;99962.14;1707538;84;21089;-69
2022/02/23 06:52:00;;;;;;;7.87;3.10;;;;;;;4.19;58.44;99962.30;1707464;84;21972;-70
2022/02/23 06:54:28;;;;;;;7.22;3.50;;;;;;;4.69;59.01;99961.97;1687450;84;21016;-70
2022/02/23 06:56:54;;;;;;;5.20;3.20;;;;;;;5.24;56.40;99955.86;1673078;85;21071;-70
2022/02/23 06:59:21;;;;;;;4.67;3.00;;;;;;;5.88;54.49;99954.17;1673093;85;21004;-70
2022/02/23 07:01:47;;;;;;;6.08;3.58;;;;;;;6.69;51.62;99959.39;1673305;85;21624;-70
2022/02/23 07:04:16;;;;;;;5.95;3.05;;;;;;;7.51;49.95;99962.97;1672996;85;21099;-69
2022/02/23 07:06:43;;;;;;;4.33;2.47;;;;;;;8.43;48.96;99959.94;1672993;85;21024;-68
2022/02/23 07:09:09;;;;;;;4.22;2.30;;;;;;;9.39;46.64;99958.54;1673102;85;21080;-69
2022/02/23 07:11:37;;;;;;;5.83;2.95;;;;;;;10.23;40.26;99958.06;1672975;85;21095;-69
2022/02/23 07:14:05;;;;;;;6.35;2.80;;;;;;;10.31;39.79;99967.47;1673082;85;21135;-70
2022/02/23 07:16:32;;;;;;;4.90;2.90;;;;;;;9.68;39.16;99958.80;1672993;85;21220;-69
2022/02/23 07:18:58;;;;;;;4.80;3.08;;;;;;;9.21;40.76;99970.53;1672897;85;21044;-69
2022/02/23 07:21:27;;;;;;;6.67;2.62;;;;;;;8.96;42.10;99977.91;1673072;85;21582;-69
2022/02/23 07:23:53;;;;;;;6.65;2.80;;;;;;;8.56;40.34;99972.64;1672800;85;21644;-68
2022/02/23 07:26:20;;;;;;;7.90;2.37;;;;;;;7.99;41.96;99976.06;1673456;85;21060;-69
2022/02/23 07:28:46;;;;;;;5.25;2.55;;;;;;;7.62;43.49;99981.03;1673102;85;21583;-69
2022/02/23 07:31:15;;;;;;;4.78;2.33;;;;;;;7.37;43.65;99991.77;1673176;85;21019;-69
2022/02/23 07:33:42;;;;;;;4.85;2.47;;;;;;;7.02;43.64;99990.91;1672912;85;21249;-69
2022/02/23 07:36:09;;;;;;;7.03;2.50;;;;;;;6.67;44.18;99996.08;1673211;85;21060;-70
2022/02/23 07:38:38;;;;;;;6.22;2.62;;;;;;;6.33;45.51;99997.28;1672891;85;21004;-68
2022/02/23 07:41:06;;;;;;;6.53;3.37;;;;;;;5.96;47.10;100012.44;1673193;85;21478;-69
2022/02/23 07:43:34;;;;;;;4.85;3.10;;;;;;;5.67;47.06;100008.58;1672960;85;21012;-69
2022/02/23 07:46:01;;;;;;;5.87;2.80;;;;;;;5.46;49.56;100016.83;1673002;85;21039;-69
2022/02/23 07:48:28;;;;;;;6.25;3.05;;;;;;;5.23;48.39;100016.77;1673069;85;21000;-68
2022/02/23 07:50:58;;;;;;;5.15;2.70;;;;;;;5.03;49.13;100017.55;1673651;85;21072;-69
2022/02/23 07:53:25;;;;;;;7.37;2.75;;;;;;;4.86;50.40;100015.66;1667062;84;22008;-68
2022/02/23 07:55:51;;;;;;;5.37;2.87;;;;;;;4.69;50.00;100020.66;1631865;87;21087;-69
2022/02/23 07:58:18;;;;;;;7.92;3.58;;;;;;;4.56;51.79;100024.36;1631698;87;21025;-69
2022/02/23 08:00:45;;;;;;;4.67;2.55;;;;;;;4.30;51.22;100034.70;1631515;87;21079;-70
2022/02/23 08:03:14;;;;;;;6.15;2.67;;;;;;;4.43;50.44;100033.23;1631635;87;21115;-69
2022/02/23 08:05:42;;;;;;;9.80;2.50;;;;;;;5.01;50.99;100024.53;1631654;87;21551;-70
2022/02/23 08:08:09;;;;;;;9.48;2.52;;;;;;;6.11;49.21;100023.46;1631320;86;21309;-69
2022/02/23 08:10:37;;;;;;;3.90;2.60;;;;;;;7.27;45.31;100014.27;1631564;87;21548;-70
2022/02/23 08:13:05;;;;;;;4.00;2.47;;;;;;;7.96;43.74;100010.26;1631670;87;21144;-70
2022/02/23 08:21:03;;;;;;;4.50;2.52;;;;;;;7.78;41.57;100018.17;1631651;87;21099;-70
2022/02/23 08:23:30;;;;;;;5.22;2.50;;;;;;;7.65;41.07;100021.56;1631570;87;21063;-69
2022/02/23 08:25:56;;;;;;;4.83;2.37;;;;;;;7.64;41.63;100019.86;1631835;87;21100;-69
2022/02/23 08:28:22;;;;;;;3.15;2.40;;;;;;;8.10;41.38;100015.11;1631613;87;21028;-69
2022/02/23 08:30:49;;;;;;;10.32;2.75;;;;;;;8.91;39.92;100003.94;1631842;86;21787;-70
2022/02/23 08:33:15;;;;;;;4.78;2.50;;;;;;;9.78;38.70;99998.34;1631450;86;21098;-70
2022/02/23 08:35:42;;;;;;;3.15;2.30;;;;;;;10.24;36.09;100007.17;1631610;87;21115;-70
2022/02/23 08:38:15;;;;;;;4.33;2.27;;;;;;;11.02;37.02;100011.19;1631392;87;21051;-70
2022/02/23 08:40:41;;;;;;;6.58;2.30;;;;;;;11.92;34.91;100009.14;1631137;87;21075;-70
2022/02/23 08:43:08;;;;;;;47.10;4.17;;;;;;;12.36;33.18;99999.66;1631482;87;21162;-70
2022/02/23 08:45:35;;;;;;;5.80;2.42;;;;;;;12.25;33.47;100007.22;1644480;86;21103;-70
2022/02/23 08:48:02;;;;;;;6.72;2.20;;;;;;;12.39;31.96;100002.15;1655259;85;21618;-69
2022/02/23 08:50:29;;;;;;;3.30;1.80;;;;;;;12.54;32.88;99998.42;1655076;86;21079;-70
2022/02/23 08:52:56;;;;;;;5.55;1.92;;;;;;;13.05;32.30;99996.83;1655285;86;21062;-70
2022/02/23 08:55:23;;;;;;;4.80;1.90;;;;;;;13.33;30.87;99996.33;1687215;85;22142;-70
2022/02/23 08:57:51;;;;;;;2.52;1.80;;;;;;;13.61;31.07;99986.98;1659411;86;21057;-69
2022/02/23 09:00:17;;;;;;;4.60;2.10;;;;;;;13.94;29.81;99992.75;1723331;83;21025;-70
2022/02/23 09:02:44;;;;;;;6.42;2.08;;;;;;;14.24;29.32;99984.95;1694731;83;21548;-70
2022/02/23 09:05:10;;;;;;;2.87;1.75;;;;;;;14.66;28.65;99984.42;1723903;83;22138;-69
2022/02/23 09:07:38;;;;;;;3.90;2.02;;;;;;;15.06;27.76;99979.95;1723059;83;21041;-70
2022/02/23 09:10:06;;;;;;;4.40;2.33;;;;;;;15.37;27.53;99988.77;1723181;83;21093;-70
2022/02/23 09:12:33;;;;;;;9.40;2.45;;;;;;;15.47;26.69;99979.33;1722909;83;21166;-69
2022/02/23 09:14:59;;;;;;;4.35;2.12;;;;;;;15.75;26.60;99983.85;1723049;83;21081;-69
2022/02/23 09:17:26;;;;;;;4.08;2.37;;;;;;;16.08;27.30;99989.36;1723584;83;21081;-71
2022/02/23 09:19:55;;;;;;;19.57;2.70;;;;;;;16.29;25.71;99984.05;1723424;83;21149;-70
2022/02/23 09:22:22;;;;;;;6.53;2.22;;;;;;;16.28;26.04;99984.14;1723192;83;21080;-71
2022/02/23 09:24:48;;;;;;;4.00;2.22;;;;;;;16.46;25.53;99980.31;1723038;83;21002;-71
2022/02/23 09:27:15;;;;;;;4.92;2.42;;;;;;;16.71;25.06;99976.09;1722599;83;21080;-70
2022/02/23 09:29:41;;;;;;;5.47;2.10;;;;;;;16.87;24.12;99974.16;1722995;83;21053;-70
2022/02/23 09:32:09;;;;;;;11.08;2.85;;;;;;;16.78;24.20;99978.72;1723065;83;21144;-70
2022/02/23 09:34:35;;;;;;;4.95;2.58;;;;;;;16.88;24.56;99974.52;1723062;83;21116;-70
2022/02/23 09:37:03;;;;;;;3.90;2.40;;;;;;;17.08;24.29;99977.20;1722982;83;21061;-70
2022/02/23 09:39:31;;;;;;;4.08;2.30;;;;;;;17.31;22.84;99974.81;1722886;83;22157;-70
2022/02/23 09:41:58;;;;;;;4.42;2.62;;;;;;;16.91;23.39;99978.33;1723153;83;21603;-69
2022/02/23 09:44:31;;;;;;;8.65;2.65;;;;;;;16.76;24.40;99975.30;1694409;83;21462;-70
2022/02/23 09:46:54;;;;;;;3.25;2.33;;;;;;;16.88;24.09;99982.50;1715043;82;21045;-71
2022/02/23 09:49:21;;;;;;;3.85;2.40;;;;;;;16.88;24.51;99986.48;1715504;83;21022;-70
2022/02/23 09:51:47;;;;;;;3.98;1.95;;;;;;;16.82;22.95;99983.38;1715273;83;21021;-70
2022/02/23 09:54:14;;;;;;;3.95;2.22;;;;;;;16.13;23.72;99992.13;1715615;83;21097;-70
2022/02/23 09:56:41;;;;;;;4.37;2.98;;;;;;;15.56;24.67;99993.86;1715368;83;21547;-70
2022/02/23 09:59:07;;;;;;;3.55;2.37;;;;;;;15.29;25.16;99992.73;1715198;83;21037;-70
2022/02/23 10:01:35;;;;;;;6.47;2.67;;;;;;;15.49;26.17;100000.00;1715361;83;21037;-71
2022/02/23 10:04:03;;;;;;;5.62;2.70;;;;;;;15.82;24.42;99986.99;1649361;83;21580;-70
2022/02/23 10:06:34;;;;;;;4.85;2.15;;;;;;;15.55;23.89;99986.34;1695550;83;21001;-70
2022/02/23 10:09:09;;;;;;;7.65;2.87;;;;;;;14.16;25.93;99983.20;1715536;83;21815;-69
2022/02/23 10:11:37;;;;;;;4.90;2.83;;;;;;;13.53;26.35;99993.16;1714270;83;21081;-69
2022/02/23 10:14:04;;;;;;;5.45;2.90;;;;;;;13.51;27.77;99986.61;1715342;83;21037;-70
2022/02/23 10:16:35;;;;;;;3.47;2.50;;;;;;;13.89;27.73;99986.37;1715471;83;21005;-70
2022/02/23 10:19:06;;;;;;;;;;;;;;;14.43;27.30;99987.47;1717999;83;21038;-69
2022/02/23 10:21:57;;;;;;;6.62;3.52;;;;;;;14.68;26.10;99983.02;1715566;83;21099;-70
2022/02/23 10:24:32;;;;;;;6.62;3.30;;;;;;;14.81;25.86;99983.16;1715052;83;21077;-70
2022/02/23 10:27:11;;;;;;;4.40;2.87;;;;;;;15.01;25.91;99984.68;1715670;83;21589;-70
2022/02/23 10:29:51;;;;;;;7.25;3.70;;;;;;;15.01;26.51;99982.03;1715194;83;22134;-70
2022/02/23 10:32:19;;;;;;;5.53;3.12;;;;;;;15.12;25.58;99978.77;1715400;83;21688;-70
2022/02/23 10:34:49;;;;;;;5.47;2.83;;;;;;;15.34;25.17;99984.49;1715732;83;21220;-69
2022/02/23 10:37:25;;;;;;;5.62;3.50;;;;;;;15.08;24.61;99975.42;1715367;83;21041;-70
2022/02/23 10:39:59;;;;;;;10.60;3.87;;;;;;;14.17;25.61;99984.91;1705376;84;21113;-69
2022/02/23 10:42:32;;;;;;;7.83;3.58;;;;;;;13.61;26.13;99989.16;1705321;84;21077;-69
2022/02/23 10:44:59;;;;;;;8.03;3.80;;;;;;;13.02;26.91;99985.06;1705726;82;21014;-70
2022/02/23 10:47:31;;;;;;;7.70;3.87;;;;;;;12.64;27.57;99989.59;1705850;84;21789;-69
2022/02/23 10:50:06;;;;;;;7.60;3.77;;;;;;;12.66;28.68;99987.26;1705868;84;21034;-69
2022/02/23 10:52:41;;;;;;;6.62;3.77;;;;;;;12.94;28.35;99984.59;1705733;84;21598;-69
2022/02/23 10:55:17;;;;;;;7.58;3.62;;;;;;;13.07;28.24;99985.72;1705340;84;21073;-70
2022/02/23 10:57:49;;;;;;;8.93;3.70;;;;;;;13.21;28.64;99984.55;1706093;84;21097;-70
2022/02/23 11:00:21;;;;;;;6.03;3.47;;;;;;;13.46;27.36;99979.83;1681212;84;23263;-69
2022/02/23 11:02:50;;;;;;;6.30;2.72;;;;;;;13.40;27.09;99990.27;1705376;84;21069;-70
2022/02/23 11:05:17;;;;;;;5.45;2.90;;;;;;;13.25;26.93;99983.95;1705452;84;21554;-69
2022/02/23 11:07:46;;;;;;;9.00;3.08;;;;;;;13.05;26.84;99979.64;1705701;84;21109;-69
2022/02/23 11:10:15;;;;;;;6.17;3.22;;;;;;;13.03;29.00;99976.69;1705636;84;21046;-70
2022/02/23 11:12:45;;;;;;;6.45;3.20;;;;;;;13.22;27.55;99973.03;1705722;84;21572;-70
2022/02/23 11:15:14;;;;;;;5.20;3.40;;;;;;;13.23;27.24;99981.37;1688526;85;21045;-69
2022/02/23 11:17:40;;;;;;;6.90;3.67;;;;;;;13.25;28.54;99979.09;1650466;85;21020;-70
2022/02/23 11:20:07;;;;;;;6.97;3.72;;;;;;;13.32;27.66;99972.59;1675122;85;21119;-70
2022/02/23 11:22:36;;;;;;;7.62;4.03;;;;;;;13.49;27.27;99972.60;1675036;85;21068;-70
2022/02/23 11:25:02;;;;;;;7.85;3.40;;;;;;;13.58;28.04;99972.13;1675055;85;21120;-69
2022/02/23 11:27:29;;;;;;;6.10;3.50;;;;;;;13.59;26.89;99974.30;1675259;85;21036;-69
2022/02/23 11:30:05;;;;;;;5.80;3.15;;;;;;;13.46;27.82;99979.38;1650084;85;21023;-70
2022/02/23 11:32:36;;;;;;;7.03;3.83;;;;;;;13.23;27.91;99981.37;1675314;85;21043;-69
2022/02/23 11:35:04;;;;;;;6.67;3.33;;;;;;;12.93;27.53;99977.58;1650669;85;21607;-70
2022/02/23 11:37:33;;;;;;;5.80;3.67;;;;;;;12.63;29.13;99978.17;1675012;85;21155;-70
2022/02/23 11:40:01;;;;;;;7.40;3.80;;;;;;;12.56;28.24;99975.41;1675153;85;21008;-70
2022/02/23 11:42:27;;;;;;;7.53;3.42;;;;;;;12.17;28.99;99973.73;1675396;85;21119;-70
2022/02/23 11:45:13;;;;;;;5.87;3.00;;;;;;;11.74;29.36;99972.98;1617543;86;21063;-69
2022/02/23 11:47:47;;;;;;;6.92;2.90;;;;;;;11.58;29.29;99974.59;1732758;82;21049;-69